Time,TemperatureF,DewpointF,PressureIn,WindDirection,WindDirectionDegrees,WindSpeedMPH,WindSpeedGustMPH,Humidity,HourlyPrecipIn,Conditions,Clouds,dailyrainin,SoftwareType,DateUTC
2013-10-03 00:24:00,62.0,58.0,29.87,WSW,251,0.0,0.0,86,0.00,,,0.00,,2013-10-03 04:24:00,
2013-10-03 00:53:00,61.0,57.0,29.88,WNW,285,0.0,0.0,87,0.00,,,0.00,,2013-10-03 04:53:00,
2013-10-03 01:23:00,59.0,56.0,29.89,WNW,285,0.0,0.0,90,0.00,,,0.00,,2013-10-03 05:23:00,
2013-10-03 01:43:00,58.0,55.0,29.89,WNW,285,0.0,0.0,91,0.00,,,0.00,,2013-10-03 05:43:00,
2013-10-03 01:52:00,58.0,56.0,29.89,WNW,285,0.0,0.0,92,0.00,,,0.00,,2013-10-03 05:52:00,
2013-10-03 02:12:00,57.0,55.0,29.90,WNW,285,0.0,0.0,93,0.00,,,0.00,,2013-10-03 06:12:00,
2013-10-03 02:22:00,57.0,55.0,29.90,WNW,285,0.0,0.0,94,0.00,,,0.00,,2013-10-03 06:22:00,
2013-10-03 02:42:00,56.0,55.0,29.91,WNW,285,0.0,0.0,95,0.00,,,0.00,,2013-10-03 06:42:00,
2013-10-03 02:52:00,56.0,55.0,29.91,WNW,285,0.0,0.0,95,0.00,,,0.00,,2013-10-03 06:52:00,
2013-10-03 03:11:00,55.0,54.0,29.91,WNW,285,0.0,0.0,96,0.00,,,0.00,,2013-10-03 07:11:00,
2013-10-03 03:22:00,55.0,54.0,29.91,WNW,285,0.0,0.0,96,0.00,,,0.00,,2013-10-03 07:22:00,
2013-10-03 03:52:00,55.0,54.0,29.91,WNW,285,0.0,0.0,97,0.00,,,0.00,,2013-10-03 07:52:00,
2013-10-03 04:22:00,54.0,53.0,29.93,WNW,285,0.0,0.0,97,0.00,,,0.00,,2013-10-03 08:22:00,
2013-10-03 04:42:00,53.0,52.0,29.93,WNW,285,0.0,0.0,97,0.00,,,0.00,,2013-10-03 08:42:00,
2013-10-03 04:52:00,53.0,52.0,29.93,WNW,285,0.0,0.0,97,0.00,,,0.00,,2013-10-03 08:52:00,
2013-10-03 05:22:00,52.0,51.0,29.94,WNW,285,0.0,0.0,98,0.00,,,0.00,,2013-10-03 09:22:00,
2013-10-03 05:53:00,51.0,50.0,29.94,WNW,285,0.0,0.0,98,0.00,,,0.00,,2013-10-03 09:53:00,
2013-10-03 06:23:00,51.0,51.0,29.96,WNW,285,0.0,0.0,99,0.00,,,0.00,,2013-10-03 10:23:00,
2013-10-03 06:52:00,51.0,51.0,29.96,WNW,285,0.0,0.0,99,0.00,,,0.00,,2013-10-03 10:52:00,
2013-10-03 07:12:00,51.0,51.0,29.97,WNW,285,0.0,0.0,99,0.00,,,0.00,,2013-10-03 11:12:00,
2013-10-03 07:23:00,50.0,50.0,29.97,WNW,285,0.0,0.0,99,0.00,,,0.00,,2013-10-03 11:23:00,
2013-10-03 07:52:00,51.0,51.0,29.98,WNW,285,0.0,0.0,100,0.00,,,0.00,,2013-10-03 11:52:00,
2013-10-03 08:22:00,52.0,52.0,29.99,WNW,285,0.0,0.0,100,0.00,,,0.00,,2013-10-03 12:22:00,
2013-10-03 08:52:00,55.0,55.0,30.00,WNW,285,0.0,0.0,100,0.00,,,0.00,,2013-10-03 12:52:00,
2013-10-03 09:11:00,57.0,57.0,30.01,WNW,285,0.0,0.0,99,0.00,,,0.00,,2013-10-03 13:11:00,
2013-10-03 09:22:00,59.0,58.0,30.01,WNW,285,0.0,0.0,97,0.00,,,0.00,,2013-10-03 13:22:00,
2013-10-03 09:52:00,62.0,54.0,30.01,NNW,332,1.0,7.0,74,0.00,,,0.00,,2013-10-03 13:52:00,
2013-10-03 10:22:00,66.0,53.0,30.01,NW,322,0.0,6.0,64,0.00,,,0.00,,2013-10-03 14:22:00,
2013-10-03 10:52:00,68.0,52.0,30.01,NNW,329,0.0,6.0,56,0.00,,,0.00,,2013-10-03 14:52:00,
2013-10-03 11:22:00,69.0,52.0,30.01,North,359,0.0,7.0,54,0.00,,,0.00,,2013-10-03 15:22:00,
2013-10-03 11:53:00,70.0,53.0,30.00,WNW,288,0.0,4.0,54,0.00,,,0.00,,2013-10-03 15:53:00,
2013-10-03 12:23:00,71.0,52.0,30.00,WNW,290,0.0,6.0,51,0.00,,,0.00,,2013-10-03 16:23:00,
2013-10-03 12:42:00,71.0,51.0,29.99,WNW,292,1.0,5.0,49,0.00,,,0.00,,2013-10-03 16:42:00,
2013-10-03 12:53:00,72.0,52.0,29.99,West,279,1.0,7.0,49,0.00,,,0.00,,2013-10-03 16:53:00,
2013-10-03 13:22:00,74.0,51.0,29.98,WNW,290,1.0,8.0,44,0.00,,,0.00,,2013-10-03 17:22:00,
2013-10-03 13:42:00,74.0,46.0,29.97,WNW,287,0.0,6.0,37,0.00,,,0.00,,2013-10-03 17:42:00,
2013-10-03 13:52:00,75.0,48.0,29.97,SW,222,0.0,4.0,39,0.00,,,0.00,,2013-10-03 17:52:00,
2013-10-03 14:12:00,76.0,51.0,29.96,WSW,239,2.0,8.0,41,0.00,,,0.00,,2013-10-03 18:12:00,
2013-10-03 14:22:00,76.0,48.0,29.96,SW,234,2.0,11.0,37,0.00,,,0.00,,2013-10-03 18:22:00,
2013-10-03 14:52:00,76.0,47.0,29.94,NW,314,0.0,7.0,36,0.00,,,0.00,,2013-10-03 18:52:00,
2013-10-03 15:22:00,76.0,48.0,29.94,WNW,301,0.0,6.0,37,0.00,,,0.00,,2013-10-03 19:22:00,
2013-10-03 15:52:00,76.0,49.0,29.94,WNW,301,0.0,7.0,39,0.00,,,0.00,,2013-10-03 19:52:00,
2013-10-03 16:12:00,75.0,49.0,29.93,WSW,242,1.0,7.0,40,0.00,,,0.00,,2013-10-03 20:12:00,
2013-10-03 16:22:00,75.0,48.0,29.93,West,268,1.0,6.0,39,0.00,,,0.00,,2013-10-03 20:22:00,
2013-10-03 16:42:00,75.0,48.0,29.93,SW,225,0.0,3.0,38,0.00,,,0.00,,2013-10-03 20:42:00,
2013-10-03 16:52:00,74.0,51.0,29.93,WSW,238,0.0,6.0,44,0.00,,,0.00,,2013-10-03 20:52:00,
2013-10-03 17:21:00,72.0,52.0,29.93,SW,232,0.0,0.0,49,0.00,,,0.00,,2013-10-03 21:21:00,
2013-10-03 18:23:00,67.0,54.0,29.93,SW,232,0.0,0.0,64,0.00,,,0.00,,2013-10-03 22:23:00,
2013-10-03 18:43:00,66.0,54.0,29.94,SW,232,0.0,0.0,66,0.00,,,0.00,,2013-10-03 22:43:00,
2013-10-03 18:54:00,65.0,56.0,29.94,SW,232,0.0,0.0,72,0.00,,,0.00,,2013-10-03 22:54:00,
2013-10-03 19:22:00,63.0,55.0,29.94,SW,232,0.0,0.0,76,0.00,,,0.00,,2013-10-03 23:22:00,
2013-10-03 19:52:00,61.0,55.0,29.95,SW,232,0.0,0.0,82,0.00,,,0.00,,2013-10-03 23:52:00,
2013-10-03 20:12:00,60.0,56.0,29.96,SW,232,0.0,0.0,86,0.00,,,0.00,,2013-10-04 00:12:00,
2013-10-03 20:22:00,59.0,55.0,29.96,SW,232,0.0,0.0,86,0.00,,,0.00,,2013-10-04 00:22:00,
2013-10-03 20:42:00,58.0,54.0,29.96,SW,232,0.0,0.0,86,0.00,,,0.00,,2013-10-04 00:42:00,
2013-10-03 20:52:00,58.0,54.0,29.96,SW,232,0.0,0.0,86,0.00,,,0.00,,2013-10-04 00:52:00,
2013-10-03 21:12:00,58.0,54.0,29.97,SW,232,0.0,0.0,88,0.00,,,0.00,,2013-10-04 01:12:00,
2013-10-03 21:22:00,58.0,54.0,29.97,SW,232,0.0,0.0,87,0.00,,,0.00,,2013-10-04 01:22:00,
2013-10-03 21:52:00,58.0,55.0,29.97,SW,232,0.0,0.0,89,0.00,,,0.00,,2013-10-04 01:52:00,
2013-10-03 22:22:00,58.0,55.0,29.98,SW,232,0.0,0.0,90,0.00,,,0.00,,2013-10-04 02:22:00,
2013-10-03 22:52:00,57.0,55.0,29.99,SW,232,0.0,0.0,92,0.00,,,0.00,,2013-10-04 02:52:00,
2013-10-03 23:22:00,56.0,54.0,29.99,SW,232,0.0,0.0,93,0.00,,,0.00,,2013-10-04 03:22:00,
2013-10-03 23:58:00,56.0,54.0,29.99,SW,232,0.0,0.0,93,0.00,,,0.00,,2013-10-04 03:58:00,